Time;durP1;ratioP1;P1;durP2;ratioP2;P2;SDS_P1;SDS_P2;PMS_P1;PMS_P2;Temp;Humidity;BMP_temperature;BMP_pressure;BME280_temperature;BME280_humidity;BME280_pressure;Samples;Min_cycle;Max_cycle;Signal;HPM_P1;HPM_P2
2023/02/11 00:00:24;;;;;;;11.30;7.80;;;16.90;48.70;;;;;;4991881;28;20488;-77
2023/02/11 00:02:52;;;;;;;10.97;8.03;;;16.90;48.80;;;;;;4989285;28;20478;-77
2023/02/11 00:05:21;;;;;;;13.07;7.80;;;16.90;48.90;;;;;;4989068;28;20450;-78
2023/02/11 00:07:49;;;;;;;11.90;8.00;;;16.90;48.90;;;;;;4985553;28;20458;-78
2023/02/11 00:10:17;;;;;;;12.27;8.03;;;16.90;48.90;;;;;;4985543;28;20459;-78
2023/02/11 00:12:45;;;;;;;11.70;7.70;;;16.90;48.90;;;;;;4983940;28;20473;-75
2023/02/11 00:15:13;;;;;;;13.27;8.00;;;16.90;48.90;;;;;;4991362;28;20461;-78
2023/02/11 00:17:41;;;;;;;11.17;7.73;;;16.90;48.90;;;;;;4983219;28;20457;-78
2023/02/11 00:20:09;;;;;;;14.20;8.33;;;16.90;48.90;;;;;;4988924;28;20453;-78
2023/02/11 00:22:39;;;;;;;10.37;7.00;;;16.90;49.00;;;;;;4988592;28;20469;-76
2023/02/11 00:25:07;;;;;;;14.43;6.90;;;16.90;49.00;;;;;;4981611;28;20454;-76
2023/02/11 00:27:36;;;;;;;10.80;6.90;;;16.90;49.00;;;;;;4985642;28;20481;-78
2023/02/11 00:30:04;;;;;;;19.57;10.03;;;16.90;49.00;;;;;;4982111;28;20962;-77
2023/02/11 00:32:32;;;;;;;17.40;11.00;;;16.90;49.00;;;;;;4986471;28;20482;-77
2023/02/11 00:35:00;;;;;;;20.07;12.53;;;16.90;49.00;;;;;;4987784;28;20465;-76
2023/02/11 00:37:28;;;;;;;17.20;11.37;;;16.90;49.00;;;;;;4981223;28;20529;-77
2023/02/11 00:39:57;;;;;;;18.80;10.60;;;16.90;49.00;;;;;;4985369;28;20472;-77
2023/02/11 00:42:25;;;;;;;15.07;10.57;;;16.90;49.10;;;;;;4986257;28;20478;-77
2023/02/11 00:44:53;;;;;;;16.40;10.03;;;16.90;49.10;;;;;;4987355;28;20453;-77
2023/02/11 00:47:21;;;;;;;15.93;9.97;;;16.90;49.10;;;;;;4979990;28;20454;-77
2023/02/11 00:49:49;;;;;;;18.07;9.47;;;16.90;49.10;;;;;;4988045;28;20472;-77
2023/02/11 00:52:17;;;;;;;18.93;9.97;;;16.90;49.10;;;;;;4981503;28;20478;-77
2023/02/11 00:54:45;;;;;;;14.07;9.03;;;16.90;49.10;;;;;;4983271;28;20461;-77
2023/02/11 00:57:14;;;;;;;15.20;9.60;;;16.90;49.20;;;;;;4985650;28;21002;-78
2023/02/11 00:59:41;;;;;;;13.73;9.27;;;16.90;49.10;;;;;;4987108;28;20492;-78
2023/02/11 01:02:09;;;;;;;14.90;8.80;;;16.90;49.20;;;;;;4988271;28;20477;-78
2023/02/11 01:04:37;;;;;;;14.70;9.00;;;16.90;49.20;;;;;;4985484;28;20453;-77
2023/02/11 01:07:05;;;;;;;12.70;8.43;;;16.90;49.30;;;;;;4985579;28;20448;-77
2023/02/11 01:09:32;;;;;;;14.50;9.50;;;16.90;49.30;;;;;;4984841;28;20457;-78
2023/02/11 01:12:00;;;;;;;15.03;9.27;;;16.80;49.20;;;;;;4988714;28;20472;-78
2023/02/11 01:14:30;;;;;;;12.50;8.50;;;16.90;49.30;;;;;;4984612;28;20458;-77
2023/02/11 01:16:58;;;;;;;16.20;8.50;;;16.90;49.30;;;;;;4984747;28;20453;-78
2023/02/11 01:19:25;;;;;;;12.53;8.33;;;16.90;49.40;;;;;;4981029;28;20470;-77
2023/02/11 01:21:53;;;;;;;12.40;8.00;;;16.90;49.40;;;;;;4985550;28;20480;-77
2023/02/11 01:24:21;;;;;;;11.20;7.67;;;16.90;49.30;;;;;;4984181;28;20446;-78
2023/02/11 01:26:48;;;;;;;14.00;8.17;;;16.90;49.30;;;;;;4984810;28;20473;-77
2023/02/11 01:29:16;;;;;;;12.30;8.00;;;16.90;49.30;;;;;;4986358;28;20458;-78
2023/02/11 01:31:45;;;;;;;13.27;8.43;;;16.90;49.40;;;;;;4981982;28;21028;-78
2023/02/11 01:34:13;;;;;;;12.73;8.30;;;16.90;49.40;;;;;;4984891;28;20472;-77
2023/02/11 01:36:41;;;;;;;12.30;7.73;;;16.90;49.40;;;;;;4983617;28;20461;-78
2023/02/11 01:39:08;;;;;;;14.77;7.67;;;16.90;49.30;;;;;;4982089;28;20486;-79
2023/02/11 01:41:36;;;;;;;12.30;8.00;;;16.90;49.40;;;;;;4990172;28;20480;-78
2023/02/11 01:44:24;;;;;;;12.37;7.40;;;16.90;49.40;;;;;;4985062;28;20469;-77
2023/02/11 01:46:53;;;;;;;11.37;7.00;;;16.90;49.40;;;;;;4985846;28;20453;-79
2023/02/11 01:49:23;;;;;;;12.70;7.00;;;16.90;49.40;;;;;;4984828;28;20442;-78
2023/02/11 01:51:52;;;;;;;11.60;7.37;;;16.90;49.50;;;;;;4986651;28;20484;-78
2023/02/11 01:57:23;;;;;;;12.10;7.40;;;16.90;49.50;;;;;;4986017;28;20491;-78
2023/02/11 01:59:57;;;;;;;17.70;7.30;;;16.90;49.60;;;;;;4985521;28;20454;-78
2023/02/11 02:02:29;;;;;;;12.57;7.57;;;16.80;49.50;;;;;;4990658;28;20473;-76
2023/02/11 02:05:00;;;;;;;14.17;7.13;;;16.80;49.50;;;;;;4983009;28;20457;-77
2023/02/11 02:07:34;;;;;;;11.60;6.80;;;16.80;49.50;;;;;;4981855;28;20457;-78
2023/02/11 02:10:04;;;;;;;10.30;6.70;;;16.90;49.50;;;;;;4990214;28;20457;-78
2023/02/11 02:12:32;;;;;;;11.77;6.47;;;16.80;49.50;;;;;;4992051;28;20488;-76
2023/02/11 02:15:19;;;;;;;9.67;6.63;;;16.80;49.50;;;;;;4989586;28;20476;-79
2023/02/11 02:17:56;;;;;;;14.70;7.10;;;16.90;49.60;;;;;;4990976;28;20464;-79
2023/02/11 02:20:39;;;;;;;9.77;6.57;;;16.80;49.60;;;;;;4986775;28;20453;-78
2023/02/11 02:23:19;;;;;;;10.00;6.73;;;16.80;49.50;;;;;;4992111;28;20499;-77
2023/02/11 02:26:09;;;;;;;9.10;6.37;;;16.80;49.60;;;;;;4989406;28;20477;-76
2023/02/11 02:29:17;;;;;;;12.20;6.40;;;16.80;49.60;;;;;;4986931;28;20452;-78
2023/02/11 02:31:56;;;;;;;9.47;5.87;;;16.80;49.60;;;;;;4992012;28;20481;-76
2023/02/11 02:34:28;;;;;;;8.57;6.07;;;16.80;49.70;;;;;;4988791;28;20445;-78
2023/02/11 02:37:00;;;;;;;10.23;6.10;;;16.80;49.70;;;;;;4992664;28;20458;-76
2023/02/11 02:39:30;;;;;;;10.57;5.83;;;16.80;49.60;;;;;;4989359;28;20453;-77
2023/02/11 02:41:58;;;;;;;11.03;6.23;;;16.80;49.70;;;;;;4993953;28;20472;-77
2023/02/11 02:44:26;;;;;;;9.13;6.40;;;16.80;49.70;;;;;;4988306;28;20451;-77
2023/02/11 02:46:55;;;;;;;9.10;6.20;;;16.80;49.70;;;;;;4994379;28;20456;-77
2023/02/11 02:49:24;;;;;;;9.47;6.03;;;16.80;49.70;;;;;;4985503;28;20521;-77
2023/02/11 02:52:00;;;;;;;12.33;6.43;;;16.80;49.70;;;;;;4994999;28;20468;-77
2023/02/11 02:54:52;;;;;;;10.73;6.00;;;16.80;49.70;;;;;;4995561;28;20472;-78
2023/02/11 02:57:28;;;;;;;9.83;6.57;;;16.90;49.80;;;;;;4991615;28;20481;-79
2023/02/11 03:00:07;;;;;;;8.57;5.60;;;16.80;49.80;;;;;;4996153;28;20452;-78
2023/02/11 03:02:37;;;;;;;10.50;6.20;;;16.80;49.70;;;;;;4995378;28;20461;-79
2023/02/11 03:05:11;;;;;;;8.63;5.83;;;16.80;49.70;;;;;;4994845;28;20457;-77
2023/02/11 03:07:41;;;;;;;11.73;6.03;;;16.80;49.70;;;;;;4995427;28;20449;-76
2023/02/11 03:10:12;;;;;;;9.80;5.50;;;16.80;49.70;;;;;;4995140;28;20452;-77
2023/02/11 03:12:40;;;;;;;8.73;5.47;;;16.80;49.80;;;;;;4995057;28;20472;-78
2023/02/11 03:15:09;;;;;;;9.30;6.03;;;16.80;49.80;;;;;;4995391;28;20449;-77
2023/02/11 03:17:37;;;;;;;7.13;5.00;;;16.80;49.80;;;;;;4996833;28;20450;-78
2023/02/11 03:20:07;;;;;;;9.87;5.40;;;16.80;49.90;;;;;;4993144;28;20452;-78
2023/02/11 03:22:37;;;;;;;9.93;5.57;;;16.80;49.90;;;;;;4994528;28;20473;-78
2023/02/11 03:25:05;;;;;;;9.93;5.53;;;16.80;49.90;;;;;;4989750;28;20458;-76
2023/02/11 03:27:34;;;;;;;8.30;5.60;;;16.80;49.90;;;;;;4993645;28;20473;-78
2023/02/11 03:30:05;;;;;;;8.70;5.50;;;16.80;49.90;;;;;;4992391;28;20457;-77
2023/02/11 03:32:36;;;;;;;8.30;5.60;;;16.80;49.80;;;;;;4991735;28;20484;-77
2023/02/11 03:35:05;;;;;;;9.23;5.90;;;16.80;49.90;;;;;;4986501;28;20453;-77
2023/02/11 03:37:36;;;;;;;6.43;4.90;;;16.80;50.00;;;;;;4990193;28;20453;-78
2023/02/11 03:40:06;;;;;;;8.80;5.17;;;16.80;50.00;;;;;;4992545;28;20472;-78
2023/02/11 03:42:35;;;;;;;9.33;5.00;;;16.80;49.90;;;;;;4989707;28;20469;-76
2023/02/11 03:45:05;;;;;;;10.00;4.77;;;16.80;50.00;;;;;;4995683;28;20457;-78
2023/02/11 03:47:34;;;;;;;10.03;5.20;;;16.80;50.00;;;;;;4991705;28;20453;-77
2023/02/11 03:50:03;;;;;;;8.47;5.37;;;16.80;50.00;;;;;;4993018;28;20954;-77
2023/02/11 03:52:31;;;;;;;8.30;5.03;;;16.80;50.10;;;;;;4986147;28;20484;-77
2023/02/11 03:55:00;;;;;;;8.87;5.03;;;16.80;50.00;;;;;;4990852;28;20480;-77
2023/02/11 03:57:28;;;;;;;7.63;5.10;;;16.80;50.00;;;;;;4990625;28;20469;-76
2023/02/11 03:59:58;;;;;;;8.80;4.77;;;16.80;50.00;;;;;;4989473;28;20469;-77
2023/02/11 04:02:27;;;;;;;10.23;4.30;;;16.80;50.00;;;;;;4990065;28;20476;-78
2023/02/11 04:04:55;;;;;;;9.17;5.33;;;16.80;50.10;;;;;;4990672;28;20449;-76
2023/02/11 04:07:23;;;;;;;9.10;5.20;;;16.80;50.10;;;;;;4991294;28;20457;-78
2023/02/11 04:09:51;;;;;;;7.70;4.60;;;16.80;50.10;;;;;;4989417;28;20449;-77
2023/02/11 04:12:20;;;;;;;5.70;4.60;;;16.80;50.10;;;;;;4990321;28;20513;-78
2023/02/11 04:14:48;;;;;;;12.40;5.10;;;16.80;50.10;;;;;;4990405;28;20488;-78
2023/02/11 04:17:16;;;;;;;6.10;4.47;;;16.80;50.20;;;;;;4990695;28;20835;-76
2023/02/11 04:19:44;;;;;;;9.97;4.80;;;16.80;50.20;;;;;;4989714;28;20461;-77
2023/02/11 04:22:12;;;;;;;5.67;4.57;;;16.80;50.20;;;;;;4990342;28;20484;-76
2023/02/11 04:24:40;;;;;;;9.33;4.37;;;16.80;50.10;;;;;;4988760;28;20456;-78
2023/02/11 04:27:08;;;;;;;5.53;4.43;;;16.80;50.10;;;;;;4988443;28;20485;-78
2023/02/11 04:29:37;;;;;;;7.90;5.00;;;16.80;50.20;;;;;;4991797;28;20471;-77
2023/02/11 04:32:05;;;;;;;7.80;4.57;;;16.80;50.10;;;;;;4991640;28;20490;-77
2023/02/11 04:34:33;;;;;;;7.40;4.80;;;16.80;50.20;;;;;;4988034;28;20473;-78
2023/02/11 04:37:01;;;;;;;6.57;5.00;;;16.80;50.20;;;;;;4991806;28;20459;-77
2023/02/11 04:39:29;;;;;;;7.67;4.20;;;16.80;50.30;;;;;;4992875;28;20456;-76
2023/02/11 04:41:57;;;;;;;6.07;4.47;;;16.80;50.30;;;;;;4996910;28;20461;-76
2023/02/11 04:44:25;;;;;;;6.77;4.27;;;16.80;50.30;;;;;;4983152;28;20460;-77
2023/02/11 04:46:55;;;;;;;8.37;4.47;;;16.80;50.30;;;;;;4984656;28;20462;-76
2023/02/11 04:49:23;;;;;;;6.07;4.37;;;16.80;50.30;;;;;;4988654;28;20465;-76
2023/02/11 04:51:51;;;;;;;5.47;4.20;;;16.80;50.40;;;;;;4986299;28;20474;-76
2023/02/11 04:54:20;;;;;;;8.43;4.73;;;16.80;50.40;;;;;;4984196;28;20471;-76
2023/02/11 04:56:49;;;;;;;5.37;3.90;;;16.80;50.30;;;;;;4986608;28;20482;-77
2023/02/11 04:59:18;;;;;;;5.53;4.40;;;16.80;50.40;;;;;;4987494;28;20453;-75
2023/02/11 05:01:46;;;;;;;7.30;4.30;;;16.80;50.40;;;;;;4987141;28;20541;-76
2023/02/11 05:04:15;;;;;;;7.17;4.30;;;16.80;50.40;;;;;;4989927;28;20453;-76
2023/02/11 05:06:43;;;;;;;7.50;4.30;;;16.80;50.40;;;;;;4986906;28;20445;-76
2023/02/11 05:09:11;;;;;;;7.33;4.50;;;16.80;50.40;;;;;;4990003;28;20457;-76
2023/02/11 05:11:39;;;;;;;5.30;4.10;;;16.80;50.40;;;;;;4989047;28;20476;-76
2023/02/11 05:14:07;;;;;;;5.73;3.77;;;16.80;50.50;;;;;;4984878;28;20472;-76
2023/02/11 05:16:35;;;;;;;7.13;4.43;;;16.80;50.50;;;;;;4988817;28;20456;-76
2023/02/11 05:19:03;;;;;;;4.97;3.87;;;16.80;50.50;;;;;;4988694;28;20472;-76
2023/02/11 05:21:32;;;;;;;6.73;4.23;;;16.80;50.50;;;;;;4986958;28;20481;-76
2023/02/11 05:24:00;;;;;;;6.80;4.67;;;16.80;50.60;;;;;;4987494;28;20454;-75
2023/02/11 05:26:28;;;;;;;6.27;3.97;;;16.80;50.50;;;;;;4986936;28;20472;-76
2023/02/11 05:28:56;;;;;;;4.90;4.10;;;16.80;50.50;;;;;;4983673;28;20458;-76
2023/02/11 05:31:24;;;;;;;6.07;4.47;;;16.80;50.50;;;;;;4984102;28;20453;-76
2023/02/11 05:33:52;;;;;;;6.50;3.80;;;16.80;50.50;;;;;;4989573;28;20480;-76
2023/02/11 05:36:20;;;;;;;6.10;4.03;;;16.80;50.50;;;;;;4987406;28;21061;-76
2023/02/11 05:38:49;;;;;;;9.23;4.40;;;16.80;50.50;;;;;;4988263;28;20464;-76
2023/02/11 05:41:18;;;;;;;6.70;4.67;;;16.80;50.60;;;;;;4985662;28;20565;-75
2023/02/11 05:43:48;;;;;;;9.70;4.57;;;16.80;50.60;;;;;;4988757;28;20460;-76
2023/02/11 05:46:17;;;;;;;6.07;4.60;;;16.80;50.60;;;;;;4988433;28;20465;-76
2023/02/11 05:48:45;;;;;;;7.67;4.23;;;16.80;50.60;;;;;;4989428;28;20461;-77
2023/02/11 05:51:13;;;;;;;5.80;4.20;;;16.80;50.60;;;;;;4986050;28;20469;-76
2023/02/11 05:53:41;;;;;;;5.40;4.40;;;16.80;50.60;;;;;;4987064;28;20464;-76
2023/02/11 05:56:11;;;;;;;6.93;4.43;;;16.80;50.50;;;;;;4986633;28;20505;-76
2023/02/11 05:58:39;;;;;;;4.93;4.10;;;16.80;50.60;;;;;;4989606;28;20457;-76
2023/02/11 06:01:06;;;;;;;4.50;3.70;;;16.80;50.60;;;;;;4982718;28;20461;-76
2023/02/11 06:03:34;;;;;;;4.60;3.90;;;16.80;50.60;;;;;;4988468;28;20476;-76
2023/02/11 06:06:02;;;;;;;8.20;4.20;;;16.80;50.70;;;;;;4988155;28;20509;-76
2023/02/11 06:08:30;;;;;;;6.83;4.13;;;16.80;50.70;;;;;;4988683;28;20450;-77
2023/02/11 06:10:58;;;;;;;5.77;3.80;;;16.80;50.70;;;;;;4985699;28;20484;-77
2023/02/11 06:13:28;;;;;;;6.10;4.20;;;16.80;50.80;;;;;;4984677;28;20499;-76
2023/02/11 06:15:57;;;;;;;4.03;3.53;;;16.80;50.80;;;;;;4988129;28;20476;-77
2023/02/11 06:18:25;;;;;;;5.40;4.27;;;16.80;50.80;;;;;;4989285;28;20456;-77
2023/02/11 06:20:53;;;;;;;4.67;4.13;;;16.80;50.80;;;;;;4988664;28;20457;-77
2023/02/11 06:23:21;;;;;;;6.67;4.00;;;16.80;50.80;;;;;;4990044;28;20481;-77
2023/02/11 06:25:49;;;;;;;5.67;4.13;;;16.80;50.80;;;;;;4986238;28;20473;-77
2023/02/11 06:28:18;;;;;;;5.43;4.47;;;16.70;50.70;;;;;;4988375;28;20453;-77
2023/02/11 06:30:47;;;;;;;6.40;3.80;;;16.70;50.80;;;;;;4988789;28;20828;-77
2023/02/11 06:33:16;;;;;;;7.00;4.10;;;16.80;50.80;;;;;;4987757;28;20484;-77
2023/02/11 06:35:44;;;;;;;7.20;4.10;;;16.80;50.90;;;;;;4988487;28;20484;-77
2023/02/11 06:38:11;;;;;;;5.83;3.93;;;16.70;50.90;;;;;;4985436;28;20460;-77
2023/02/11 06:40:39;;;;;;;5.03;4.07;;;16.80;50.90;;;;;;4988886;28;20460;-77
2023/02/11 06:43:07;;;;;;;4.87;3.80;;;16.80;50.90;;;;;;4984662;28;20477;-77
2023/02/11 06:45:35;;;;;;;4.97;3.80;;;16.80;50.90;;;;;;4989247;28;20511;-77
2023/02/11 06:48:04;;;;;;;5.60;4.40;;;16.70;50.80;;;;;;4988252;28;20449;-77
2023/02/11 06:50:33;;;;;;;6.23;3.93;;;16.80;50.90;;;;;;4990213;28;20468;-77
2023/02/11 06:53:01;;;;;;;5.73;3.93;;;16.80;50.90;;;;;;4987716;28;20484;-77
2023/02/11 06:55:29;;;;;;;7.53;3.87;;;16.80;51.00;;;;;;4984699;28;20473;-77
2023/02/11 06:57:57;;;;;;;3.93;3.50;;;16.80;51.00;;;;;;4991925;28;20479;-77
2023/02/11 07:00:25;;;;;;;7.97;4.60;;;16.80;51.00;;;;;;4991425;28;20445;-77
2023/02/11 07:02:53;;;;;;;4.87;4.00;;;16.80;51.00;;;;;;4991639;28;20487;-77
2023/02/11 07:05:22;;;;;;;4.90;3.90;;;16.80;51.00;;;;;;4990954;28;20483;-77
2023/02/11 07:07:50;;;;;;;6.00;4.20;;;16.80;51.00;;;;;;4990291;28;20460;-77
2023/02/11 07:10:18;;;;;;;6.80;3.90;;;16.80;51.00;;;;;;4990373;28;20452;-77
2023/02/11 07:12:45;;;;;;;4.60;3.63;;;16.80;51.00;;;;;;4992360;28;20480;-77
2023/02/11 07:15:13;;;;;;;5.63;3.77;;;16.80;50.90;;;;;;4994062;28;21007;-78
2023/02/11 07:17:41;;;;;;;5.30;3.90;;;16.80;51.00;;;;;;4991977;28;20453;-77
2023/02/11 07:20:11;;;;;;;5.73;3.80;;;16.80;51.00;;;;;;4988779;28;20469;-77
2023/02/11 07:22:40;;;;;;;5.23;3.83;;;16.80;51.00;;;;;;4994195;28;20679;-77
2023/02/11 07:25:08;;;;;;;6.50;3.70;;;16.80;51.00;;;;;;4992842;28;20449;-77
2023/02/11 07:27:36;;;;;;;7.17;4.43;;;16.80;51.00;;;;;;4992519;28;20477;-77
2023/02/11 07:30:05;;;;;;;5.43;3.53;;;16.80;51.00;;;;;;4993297;28;20456;-77
2023/02/11 07:32:34;;;;;;;6.30;4.00;;;16.80;51.00;;;;;;4992354;28;20469;-77
2023/02/11 07:35:02;;;;;;;3.83;3.53;;;16.80;51.10;;;;;;4993969;28;20484;-78
2023/02/11 07:37:30;;;;;;;7.00;3.60;;;16.80;51.00;;;;;;4993759;28;20461;-78
2023/02/11 07:39:59;;;;;;;4.57;3.77;;;16.80;51.00;;;;;;4983762;28;20458;-77
2023/02/11 07:42:27;;;;;;;4.87;3.67;;;16.80;51.00;;;;;;4990932;28;20477;-78
2023/02/11 07:44:55;;;;;;;6.03;3.67;;;16.80;51.00;;;;;;4993147;28;20457;-78
2023/02/11 07:47:23;;;;;;;5.70;3.73;;;16.80;51.00;;;;;;4990843;28;20460;-78
2023/02/11 07:49:54;;;;;;;4.10;3.70;;;16.80;51.00;;;;;;4992045;28;20476;-77
2023/02/11 07:52:25;;;;;;;5.90;4.00;;;16.80;51.00;;;;;;4989689;28;20472;-78
2023/02/11 07:54:53;;;;;;;9.00;3.80;;;16.80;51.00;;;;;;4991960;28;20693;-75
2023/02/11 07:57:22;;;;;;;5.50;3.90;;;16.90;51.00;;;;;;4989803;28;20495;-76
2023/02/11 07:59:50;;;;;;;6.73;4.30;;;16.90;51.10;;;;;;4990534;28;20458;-76
2023/02/11 08:02:18;;;;;;;6.60;4.17;;;16.90;51.00;;;;;;4992141;28;20481;-77
2023/02/11 08:04:46;;;;;;;5.67;3.93;;;16.90;51.00;;;;;;4992923;28;20472;-76
2023/02/11 08:07:15;;;;;;;4.47;3.90;;;16.90;51.00;;;;;;4989932;28;20457;-78
2023/02/11 08:09:43;;;;;;;4.00;3.60;;;16.90;51.00;;;;;;4991774;28;20453;-77
2023/02/11 08:12:11;;;;;;;5.20;4.00;;;16.90;51.00;;;;;;4987629;28;20485;-76
2023/02/11 08:14:41;;;;;;;6.03;3.63;;;16.90;51.00;;;;;;4990728;28;20468;-76
2023/02/11 08:17:09;;;;;;;5.97;3.70;;;16.90;51.00;;;;;;4991840;28;20508;-77
2023/02/11 08:19:38;;;;;;;5.33;3.50;;;16.90;51.00;;;;;;4990491;28;20453;-78
2023/02/11 08:22:06;;;;;;;5.30;3.37;;;16.90;51.00;;;;;;4988477;28;20480;-76
2023/02/11 08:24:34;;;;;;;4.50;3.70;;;17.00;51.10;;;;;;4986501;28;20457;-77
2023/02/11 08:27:02;;;;;;;5.77;3.57;;;17.00;51.00;;;;;;4989432;28;20483;-76
2023/02/11 08:29:30;;;;;;;3.90;3.40;;;17.00;51.10;;;;;;4990112;28;20453;-76
2023/02/11 08:31:59;;;;;;;4.10;3.20;;;17.00;51.00;;;;;;4989268;28;20481;-77
2023/02/11 08:34:28;;;;;;;3.73;3.43;;;17.00;51.00;;;;;;4991978;28;20531;-76
2023/02/11 08:36:56;;;;;;;4.70;3.63;;;17.00;51.00;;;;;;4989407;28;20477;-77
2023/02/11 08:39:24;;;;;;;5.43;3.50;;;17.00;51.10;;;;;;4991314;28;20457;-77
2023/02/11 08:41:53;;;;;;;3.47;3.20;;;17.00;51.00;;;;;;4989900;28;20504;-77
2023/02/11 08:44:21;;;;;;;4.53;3.60;;;17.10;51.20;;;;;;4991049;28;20453;-76
2023/02/11 08:46:49;;;;;;;4.37;3.80;;;17.00;51.00;;;;;;4985067;28;20464;-77
2023/02/11 08:49:19;;;;;;;3.90;3.00;;;17.10;51.20;;;;;;4986240;28;20457;-78
2023/02/11 08:51:48;;;;;;;6.77;4.10;;;17.10;51.10;;;;;;4990214;28;20477;-76
2023/02/11 08:54:15;;;;;;;6.80;3.60;;;17.10;51.10;;;;;;4987931;28;20458;-78
2023/02/11 08:56:43;;;;;;;3.33;3.03;;;17.10;51.10;;;;;;4987676;28;20899;-77
2023/02/11 08:59:13;;;;;;;3.60;3.30;;;17.10;51.10;;;;;;4990034;28;20461;-78
2023/02/11 09:01:42;;;;;;;4.63;3.80;;;17.10;51.10;;;;;;4989795;28;20497;-77
2023/02/11 09:04:11;;;;;;;7.07;3.70;;;17.10;51.20;;;;;;4990913;28;20457;-78
2023/02/11 09:06:40;;;;;;;5.53;3.73;;;17.10;51.20;;;;;;4990595;28;20485;-78
2023/02/11 09:09:10;;;;;;;4.33;3.13;;;17.20;51.20;;;;;;4990449;28;20802;-77
2023/02/11 09:11:39;;;;;;;4.40;3.30;;;17.20;51.20;;;;;;4985856;28;20500;-76
2023/02/11 09:14:08;;;;;;;3.37;2.80;;;17.20;51.20;;;;;;4989935;28;20543;-76
2023/02/11 09:16:36;;;;;;;8.17;3.27;;;17.20;51.20;;;;;;4987881;28;20465;-77
2023/02/11 09:19:05;;;;;;;5.10;3.33;;;17.20;51.20;;;;;;4989050;28;20456;-77
2023/02/11 09:21:33;;;;;;;3.37;3.07;;;17.20;51.20;;;;;;4987695;28;20479;-79
2023/02/11 09:24:03;;;;;;;6.50;2.93;;;17.20;51.20;;;;;;4987376;28;20462;-77
2023/02/11 09:26:32;;;;;;;3.50;3.00;;;17.20;51.20;;;;;;4989286;28;20497;-77
2023/02/11 09:29:03;;;;;;;3.07;2.87;;;17.20;51.20;;;;;;4989569;28;20600;-78
2023/02/11 09:31:31;;;;;;;5.43;3.00;;;17.20;51.20;;;;;;4990670;28;20489;-78
2023/02/11 09:34:01;;;;;;;3.70;3.00;;;17.20;51.20;;;;;;4990256;28;20453;-76
2023/02/11 09:36:30;;;;;;;4.10;3.40;;;17.30;51.20;;;;;;4991379;28;20498;-77
2023/02/11 09:38:59;;;;;;;3.63;2.80;;;17.20;51.20;;;;;;4991781;28;20464;-79
2023/02/11 09:41:46;;;;;;;4.20;2.90;;;17.30;51.20;;;;;;4990272;28;20477;-77
2023/02/11 09:44:18;;;;;;;4.13;2.90;;;17.30;51.30;;;;;;4986247;28;20463;-78
2023/02/11 09:46:47;;;;;;;3.43;2.80;;;17.30;51.20;;;;;;4991876;28;20445;-77
2023/02/11 09:49:18;;;;;;;5.43;2.90;;;17.30;51.30;;;;;;5000398;28;20476;-79
2023/02/11 09:51:48;;;;;;;3.77;3.00;;;17.30;51.30;;;;;;4993546;28;20593;-78
2023/02/11 09:54:19;;;;;;;3.30;2.80;;;17.30;51.30;;;;;;4992491;28;20492;-78
2023/02/11 09:56:48;;;;;;;3.27;3.00;;;17.30;51.30;;;;;;4987954;28;20472;-76
2023/02/11 09:59:16;;;;;;;4.20;3.50;;;17.30;51.30;;;;;;4989245;28;20455;-78
2023/02/11 10:01:47;;;;;;;5.00;3.20;;;17.30;51.30;;;;;;4991433;28;20476;-77
2023/02/11 10:04:18;;;;;;;4.07;2.97;;;17.30;51.30;;;;;;4994534;28;20448;-76
2023/02/11 10:06:48;;;;;;;4.47;3.27;;;17.30;51.30;;;;;;4991864;28;20989;-76
2023/02/11 10:09:25;;;;;;;5.60;3.10;;;17.30;51.30;;;;;;4991343;28;20476;-75
2023/02/11 10:12:00;;;;;;;5.90;3.70;;;17.40;51.40;;;;;;4991523;28;20475;-76
2023/02/11 10:14:56;;;;;;;4.13;3.40;;;17.40;51.40;;;;;;4991230;28;20453;-76
2023/02/11 10:17:27;;;;;;;5.30;2.90;;;17.40;51.30;;;;;;4967687;28;20470;-77
2023/02/11 10:20:03;;;;;;;3.30;2.97;;;17.40;51.50;;;;;;4989214;28;20457;-77
2023/02/11 10:22:32;;;;;;;3.70;2.90;;;17.40;51.40;;;;;;4991763;28;20457;-77
2023/02/11 10:25:00;;;;;;;3.40;3.03;;;17.40;51.40;;;;;;4988906;28;20444;-76
2023/02/11 10:27:32;;;;;;;3.13;2.77;;;17.40;51.40;;;;;;4991165;28;20453;-77
2023/02/11 10:30:02;;;;;;;4.30;3.00;;;17.40;51.40;;;;;;4992408;28;20528;-77
2023/02/11 10:32:33;;;;;;;3.20;2.90;;;17.40;51.40;;;;;;4993793;28;20487;-77
2023/02/11 10:35:02;;;;;;;4.17;3.30;;;17.40;51.40;;;;;;4995072;28;20504;-76
2023/02/11 10:37:31;;;;;;;3.73;3.03;;;17.40;51.40;;;;;;4992418;28;20465;-76
2023/02/11 10:39:58;;;;;;;3.67;3.37;;;17.40;51.40;;;;;;4995335;28;20441;-77
2023/02/11 10:42:27;;;;;;;5.07;3.00;;;17.50;51.50;;;;;;4992065;28;20476;-77
2023/02/11 10:44:58;;;;;;;6.27;3.43;;;17.50;51.40;;;;;;4994274;28;20457;-77
2023/02/11 10:47:28;;;;;;;3.60;3.30;;;17.50;51.50;;;;;;4994917;28;20441;-76
2023/02/11 10:50:02;;;;;;;6.30;3.00;;;17.50;51.40;;;;;;4993987;28;20456;-76
2023/02/11 10:52:33;;;;;;;4.90;3.37;;;17.50;51.50;;;;;;4993626;28;20464;-76
2023/02/11 10:55:03;;;;;;;4.90;3.13;;;17.50;51.40;;;;;;4989915;28;20449;-76
2023/02/11 10:57:34;;;;;;;3.00;2.60;;;17.50;51.40;;;;;;4996907;28;20484;-76
2023/02/11 11:00:20;;;;;;;9.80;3.30;;;17.50;51.40;;;;;;4994571;28;20441;-75
2023/02/11 11:02:53;;;;;;;4.03;3.17;;;17.50;51.40;;;;;;4993919;28;20488;-76
2023/02/11 11:05:23;;;;;;;3.90;2.70;;;17.60;51.50;;;;;;4986785;28;20433;-75
2023/02/11 11:07:52;;;;;;;4.07;2.70;;;17.60;51.50;;;;;;4994400;28;20429;-76
2023/02/11 11:10:27;;;;;;;3.30;2.97;;;17.60;51.50;;;;;;4981863;28;20461;-76
2023/02/11 11:12:56;;;;;;;3.40;3.10;;;17.60;51.50;;;;;;4998602;28;20475;-75
2023/02/11 11:15:26;;;;;;;5.47;2.97;;;17.60;51.50;;;;;;4991450;28;20453;-75
2023/02/11 11:18:09;;;;;;;4.87;2.97;;;17.60;51.40;;;;;;4991537;28;20477;-76
2023/02/11 11:20:55;;;;;;;3.37;3.10;;;17.70;51.40;;;;;;4994415;28;20458;-76
2023/02/11 11:23:24;;;;;;;3.80;2.70;;;17.70;51.50;;;;;;4993755;28;20478;-76
2023/02/11 11:26:01;;;;;;;6.30;2.67;;;17.70;51.40;;;;;;4993964;28;20460;-76
2023/02/11 11:28:29;;;;;;;3.03;2.70;;;17.70;51.40;;;;;;4992920;28;20591;-76
2023/02/11 11:30:58;;;;;;;5.20;3.60;;;17.70;51.50;;;;;;4988745;28;20442;-76
2023/02/11 11:33:28;;;;;;;3.70;2.83;;;17.70;51.50;;;;;;4994176;28;20492;-76
2023/02/11 11:36:05;;;;;;;3.93;2.90;;;17.70;51.50;;;;;;4993384;28;20460;-75
2023/02/11 11:38:34;;;;;;;4.07;3.03;;;17.70;51.50;;;;;;4992809;28;20468;-77
2023/02/11 11:41:19;;;;;;;3.00;2.77;;;17.70;51.50;;;;;;4989805;28;20488;-77
2023/02/11 11:44:02;;;;;;;2.93;2.70;;;17.70;51.40;;;;;;4991151;28;20551;-77
2023/02/11 11:46:34;;;;;;;3.77;2.77;;;17.70;51.50;;;;;;4988699;28;20461;-76
2023/02/11 11:49:07;;;;;;;5.83;3.27;;;17.70;51.60;;;;;;4991490;28;20503;-78
2023/02/11 11:51:36;;;;;;;8.60;2.93;;;17.70;51.60;;;;;;4993618;28;20481;-78
2023/02/11 11:54:06;;;;;;;6.47;3.40;;;17.70;51.50;;;;;;4992754;28;20460;-77
2023/02/11 11:56:35;;;;;;;6.27;3.20;;;17.70;51.50;;;;;;4989750;28;20484;-77
2023/02/11 11:59:06;;;;;;;4.23;3.20;;;17.70;51.50;;;;;;4991326;28;20473;-76
2023/02/11 12:01:43;;;;;;;5.07;3.10;;;17.70;51.40;;;;;;4988405;28;20541;-78
2023/02/11 12:04:36;;;;;;;5.13;3.70;;;17.70;51.40;;;;;;4991056;28;20484;-76
2023/02/11 12:07:11;;;;;;;4.90;3.50;;;17.70;51.40;;;;;;4991051;28;20437;-77
2023/02/11 12:09:43;;;;;;;9.00;3.83;;;17.70;51.00;;;;;;4989497;28;20455;-77
2023/02/11 12:12:18;;;;;;;6.30;3.40;;;17.60;52.40;;;;;;4989381;28;20473;-77
2023/02/11 12:14:49;;;;;;;14.43;3.93;;;17.90;53.20;;;;;;4990555;28;20456;-76
2023/02/11 12:17:27;;;;;;;11.30;4.40;;;17.90;53.10;;;;;;4988456;28;20449;-76
2023/02/11 12:19:59;;;;;;;6.30;3.80;;;18.00;52.90;;;;;;4984035;28;20453;-76
2023/02/11 12:22:34;;;;;;;9.60;4.00;;;18.00;52.80;;;;;;4986712;28;20469;-76
2023/02/11 12:25:16;;;;;;;11.80;4.47;;;18.00;52.90;;;;;;4986466;28;20460;-78
2023/02/11 12:27:48;;;;;;;12.40;3.90;;;18.00;52.80;;;;;;4983329;28;20469;-77
2023/02/11 12:30:28;;;;;;;8.83;4.07;;;18.00;52.90;;;;;;4989158;28;20457;-77
2023/02/11 12:33:01;;;;;;;9.73;4.33;;;18.00;52.90;;;;;;4979672;28;20542;-77
2023/02/11 12:35:34;;;;;;;12.27;3.53;;;18.00;52.90;;;;;;4984805;28;20453;-75
2023/02/11 12:38:25;;;;;;;7.13;3.47;;;18.00;52.70;;;;;;4981480;28;21032;-76
2023/02/11 12:40:58;;;;;;;6.83;3.50;;;18.00;52.80;;;;;;4985675;28;20475;-78
2023/02/11 12:43:29;;;;;;;7.70;3.50;;;18.00;52.80;;;;;;4986285;28;20505;-77
2023/02/11 12:46:12;;;;;;;7.13;4.10;;;18.00;52.70;;;;;;4984240;28;20454;-77
2023/02/11 12:48:56;;;;;;;14.63;4.40;;;18.00;52.60;;;;;;4985652;28;20456;-76
2023/02/11 12:51:30;;;;;;;5.70;3.50;;;18.00;52.70;;;;;;4986318;28;20461;-77
2023/02/11 12:54:17;;;;;;;10.80;3.83;;;18.00;52.70;;;;;;4984318;28;20492;-77
2023/02/11 12:56:48;;;;;;;10.50;3.60;;;18.00;52.70;;;;;;4986452;28;20561;-76
2023/02/11 12:59:19;;;;;;;7.53;3.73;;;18.10;52.80;;;;;;4985951;28;20476;-77
2023/02/11 13:01:47;;;;;;;7.83;3.63;;;18.10;52.60;;;;;;4984325;28;20470;-77